»·PEaware :: N475RS KLAS-KVNY

N475RS :: KLAS-KVNY

FLIGHT INFORMATION

Flight Status: Arrived
Operator: Privately registered:
United States
More flights under this callsign
Pilot: Aker J. (16898)
Aircraft: CESSNA 550 CITATION 2/S2/BRAVO
(C550)
More flights by this aircraft type
Origin: KLAS McCarran Intl
United States
Destination: KVNY Van Nuys
United States
More flights between these airports :: More routes between these airports
Route: +BOACH8 WHIGG KREME JANNY3
File this flight plan on PilotEdge
Remarks: hawker 850
Altitude:
(Current/Filed)
16,000ft
Speed:
(Current/Filed)
350kts
Departed: 11-Jan-18 04:18 PM
Arrived: 11-Jan-18 05:25 PM
Distance/Time
Traveled:
199nm/1:07
Distance/Time
To Go:
Arrived

Flight Plot

Page will automatically refresh every two minutes.

Flight plan parsing failed; only flown route is shown


Map Options




Map Legend


Flown Route
Filed Route
Departure Airport
Arrival Airport
Navaid (VOR, NDB)
Fix

Horizontal Profiles

Position Reports

Time Latitude Longitude Heading Altitude Ground
Speed
11-Jan-18 16:07 36.085388 -115.151875 258 2185ft 0kts
11-Jan-18 16:08 36.085388 -115.151878 258 2185ft 0kts
11-Jan-18 16:09 36.085387 -115.151880 258 2185ft 0kts
11-Jan-18 16:10 36.085387 -115.151881 258 2185ft 0kts
11-Jan-18 16:11 36.085387 -115.151883 258 2185ft 0kts
11-Jan-18 16:12 36.085386 -115.151886 258 2185ft 0kts
11-Jan-18 16:13 36.085386 -115.151887 258 2185ft 0kts
11-Jan-18 16:14 36.085386 -115.151890 258 2185ft 0kts
11-Jan-18 16:15 36.087073 -115.151322 100 2185ft 7kts
11-Jan-18 16:16 36.087170 -115.151072 22 2185ft 0kts
11-Jan-18 16:17 36.087893 -115.151066 242 2185ft 7kts
11-Jan-18 16:18 36.087961 -115.155306 352 2185ft 9kts
11-Jan-18 16:19 36.091623 -115.155023 359 2185ft 14kts
11-Jan-18 16:20 36.094790 -115.153568 27 2185ft 11kts
11-Jan-18 16:21 36.097874 -115.152435 314 2185ft 15kts
11-Jan-18 16:22 36.098136 -115.152976 291 2185ft 0kts
11-Jan-18 16:23 36.098233 -115.153284 285 2185ft 9kts
11-Jan-18 16:24 36.075845 -115.166685 205 2388ft 171kts
11-Jan-18 16:25 36.019738 -115.200445 221 3267ft 240kts
11-Jan-18 16:26 35.987013 -115.267847 245 3865ft 240kts
11-Jan-18 16:27 35.931647 -115.307226 187 6355ft 245kts
11-Jan-18 16:28 35.859988 -115.314948 177 7282ft 272kts
11-Jan-18 16:29 35.783762 -115.312036 177 10201ft 261kts
11-Jan-18 16:30 35.699181 -115.301123 189 12682ft 335kts
11-Jan-18 16:31 35.636818 -115.348554 233 13258ft 212kts
11-Jan-18 16:32 35.597949 -115.403715 239 14043ft 228kts
11-Jan-18 16:33 35.550500 -115.470746 236 15815ft 291kts
11-Jan-18 16:34 35.497710 -115.537379 230 15995ft 280kts
11-Jan-18 16:35 35.438327 -115.607464 229 15990ft 307kts
11-Jan-18 16:36 35.375833 -115.681273 229 16034ft 314kts
11-Jan-18 16:37 35.312700 -115.755911 229 16150ft 313kts
11-Jan-18 16:38 35.246513 -115.834068 230 18863ft 345kts
11-Jan-18 16:39 35.177225 -115.915421 230 22661ft 342kts
11-Jan-18 16:40 35.110402 -115.993612 232 26438ft 321kts
11-Jan-18 16:41 35.050047 -116.064005 233 30188ft 275kts
11-Jan-18 16:42 34.988575 -116.137339 232 30314ft 342kts
11-Jan-18 16:43 34.924138 -116.221108 242 30323ft 362kts
11-Jan-18 16:44 34.875568 -116.329498 249 30323ft 362kts
11-Jan-18 16:45 34.840572 -116.420151 250 30304ft 352kts
11-Jan-18 16:46 34.800123 -116.524179 256 28003ft 236kts
11-Jan-18 17:01 34.651530 -117.881693 265 18033ft 268kts
11-Jan-18 17:02 34.643092 -117.959523 265 16293ft 267kts
11-Jan-18 17:03 34.632317 -118.049730 262 14431ft 270kts
11-Jan-18 17:04 34.615402 -118.136214 259 13370ft 270kts
11-Jan-18 17:05 34.596117 -118.222902 258 11236ft 249kts
11-Jan-18 17:06 34.577779 -118.304665 257 8353ft 257kts
11-Jan-18 17:07 34.558727 -118.390018 256 7989ft 266kts
11-Jan-18 17:08 34.535740 -118.475521 236 7990ft 272kts
11-Jan-18 17:09 34.495217 -118.508795 194 8005ft 278kts
11-Jan-18 17:10 34.462487 -118.516701 193 7965ft 204kts
11-Jan-18 17:11 34.417074 -118.537138 255 6631ft 176kts
11-Jan-18 17:12 34.445586 -118.547333 80 5007ft 164kts
11-Jan-18 17:13 34.417361 -118.511584 142 4515ft 164kts
11-Jan-18 17:14 34.387585 -118.488411 175 4431ft 161kts
11-Jan-18 17:15 34.342443 -118.503675 176 4024ft 150kts
11-Jan-18 17:16 34.300204 -118.501395 177 4342ft 195kts
11-Jan-18 17:17 34.248807 -118.494845 172 4844ft 175kts
11-Jan-18 17:18 34.238189 -118.527096 343 4953ft 166kts
11-Jan-18 17:19 34.284928 -118.535676 352 4911ft 159kts
11-Jan-18 17:20 34.328641 -118.542102 352 4931ft 167kts
11-Jan-18 17:21 34.375607 -118.548743 352 4938ft 170kts
11-Jan-18 17:22 34.422687 -118.555783 352 4953ft 169kts
11-Jan-18 17:23 34.469387 -118.562730 352 4983ft 168kts
11-Jan-18 17:24 34.480096 -118.527736 138 5016ft 179kts
11-Jan-18 17:25 34.432157 -118.511528 175 5088ft 182kts
11-Jan-18 17:26 34.387729 -118.507244 175 4716ft 146kts
11-Jan-18 17:27 34.347893 -118.503470 175 4228ft 141kts
11-Jan-18 17:28 34.307763 -118.499809 175 3418ft 148kts
11-Jan-18 17:29 34.268968 -118.495866 175 2047ft 125kts
11-Jan-18 17:30 34.233490 -118.492546 176 1210ft 124kts
11-Jan-18 17:31 34.204727 -118.489872 176 806ft 33kts
11-Jan-18 17:32 34.203766 -118.489427 137 806ft 3kts
11-Jan-18 17:33 34.203766 -118.489427 137 806ft 3kts
11-Jan-18 17:34 34.203766 -118.489427 137 806ft 3kts
11-Jan-18 17:35 34.203766 -118.489427 137 806ft 3kts
11-Jan-18 17:36 34.203766 -118.489427 137 806ft 3kts
11-Jan-18 17:37 34.203766 -118.489427 137 806ft 3kts
11-Jan-18 17:38 34.203766 -118.489427 137 806ft 3kts
11-Jan-18 17:39 34.203766 -118.489427 137 806ft 3kts
11-Jan-18 17:40 34.203766 -118.489427 137 806ft 3kts
11-Jan-18 17:41 34.203766 -118.489427 137 806ft 3kts
11-Jan-18 17:42 34.203766 -118.489427 137 806ft 3kts
11-Jan-18 17:43 34.203766 -118.489427 137 806ft 3kts
11-Jan-18 17:44 34.203766 -118.489427 137 806ft 3kts
11-Jan-18 17:45 34.203766 -118.489427 137 806ft 3kts

Navigation Log

Ident Type
Flight plan parsing failed, navigation log unavailable